sensor_id;sensor_type;location;lat;lon;timestamp;temperature;humidity
39931;DHT22;26635;-35.248;149.138;2023-04-01T00:02:22;15.70;74.40
39931;DHT22;26635;-35.248;149.138;2023-04-01T00:04:53;15.70;74.20
39931;DHT22;26635;-35.248;149.138;2023-04-01T00:07:23;15.80;73.90
39931;DHT22;26635;-35.248;149.138;2023-04-01T00:09:57;15.80;73.80
39931;DHT22;26635;-35.248;149.138;2023-04-01T00:12:28;15.90;75.50
39931;DHT22;26635;-35.248;149.138;2023-04-01T00:14:58;15.90;72.80
39931;DHT22;26635;-35.248;149.138;2023-04-01T00:17:30;16.10;72.20
39931;DHT22;26635;-35.248;149.138;2023-04-01T00:20:00;16.10;71.50
39931;DHT22;26635;-35.248;149.138;2023-04-01T00:22:32;16.20;71.00
39931;DHT22;26635;-35.248;149.138;2023-04-01T00:25:04;16.30;71.60
39931;DHT22;26635;-35.248;149.138;2023-04-01T00:27:35;16.40;68.20
39931;DHT22;26635;-35.248;149.138;2023-04-01T00:30:06;16.40;69.00
39931;DHT22;26635;-35.248;149.138;2023-04-01T00:32:38;16.50;68.70
39931;DHT22;26635;-35.248;149.138;2023-04-01T00:35:09;16.60;69.20
39931;DHT22;26635;-35.248;149.138;2023-04-01T00:37:40;16.80;69.80
39931;DHT22;26635;-35.248;149.138;2023-04-01T00:42:57;16.80;67.30
39931;DHT22;26635;-35.248;149.138;2023-04-01T00:45:35;16.80;68.70
39931;DHT22;26635;-35.248;149.138;2023-04-01T00:48:23;16.90;69.70
39931;DHT22;26635;-35.248;149.138;2023-04-01T00:51:19;17.10;67.20
39931;DHT22;26635;-35.248;149.138;2023-04-01T00:53:53;17.10;66.20
39931;DHT22;26635;-35.248;149.138;2023-04-01T00:56:30;17.20;67.10
39931;DHT22;26635;-35.248;149.138;2023-04-01T00:59:23;17.30;67.00
39931;DHT22;26635;-35.248;149.138;2023-04-01T01:01:54;17.50;66.70
39931;DHT22;26635;-35.248;149.138;2023-04-01T01:04:31;17.70;62.80
39931;DHT22;26635;-35.248;149.138;2023-04-01T01:10:18;18.00;63.90
39931;DHT22;26635;-35.248;149.138;2023-04-01T01:15:41;18.20;64.20
39931;DHT22;26635;-35.248;149.138;2023-04-01T01:24:13;18.40;62.10
39931;DHT22;26635;-35.248;149.138;2023-04-01T01:29:57;18.40;61.60
39931;DHT22;26635;-35.248;149.138;2023-04-01T01:38:21;18.40;62.10
39931;DHT22;26635;-35.248;149.138;2023-04-01T01:40:56;18.30;61.60
39931;DHT22;26635;-35.248;149.138;2023-04-01T01:43:32;18.30;62.20
39931;DHT22;26635;-35.248;149.138;2023-04-01T01:46:12;18.20;60.80
39931;DHT22;26635;-35.248;149.138;2023-04-01T01:48:44;18.20;61.60
39931;DHT22;26635;-35.248;149.138;2023-04-01T01:51:17;18.10;62.90
39931;DHT22;26635;-35.248;149.138;2023-04-01T01:53:47;18.00;59.60
39931;DHT22;26635;-35.248;149.138;2023-04-01T01:56:19;17.90;63.00
39931;DHT22;26635;-35.248;149.138;2023-04-01T01:58:58;17.80;61.50
39931;DHT22;26635;-35.248;149.138;2023-04-01T02:01:32;17.80;62.40
39931;DHT22;26635;-35.248;149.138;2023-04-01T02:04:04;17.70;60.90
39931;DHT22;26635;-35.248;149.138;2023-04-01T02:06:38;17.60;59.30
39931;DHT22;26635;-35.248;149.138;2023-04-01T02:09:11;17.60;61.90
39931;DHT22;26635;-35.248;149.138;2023-04-01T02:12:06;17.60;62.00
39931;DHT22;26635;-35.248;149.138;2023-04-01T02:14:53;17.60;60.80
39931;DHT22;26635;-35.248;149.138;2023-04-01T02:17:26;17.60;61.70
39931;DHT22;26635;-35.248;149.138;2023-04-01T02:20:04;17.60;62.50
39931;DHT22;26635;-35.248;149.138;2023-04-01T02:22:43;17.60;63.10
39931;DHT22;26635;-35.248;149.138;2023-04-01T02:25:19;17.60;63.10
39931;DHT22;26635;-35.248;149.138;2023-04-01T02:27:51;17.60;62.60
39931;DHT22;26635;-35.248;149.138;2023-04-01T02:30:22;17.60;63.20
39931;DHT22;26635;-35.248;149.138;2023-04-01T02:32:53;17.60;62.30
39931;DHT22;26635;-35.248;149.138;2023-04-01T02:35:25;17.60;61.90
39931;DHT22;26635;-35.248;149.138;2023-04-01T02:37:57;17.60;62.50
39931;DHT22;26635;-35.248;149.138;2023-04-01T02:40:27;17.70;60.30
39931;DHT22;26635;-35.248;149.138;2023-04-01T02:42:58;17.70;61.90
39931;DHT22;26635;-35.248;149.138;2023-04-01T02:45:29;17.70;62.90
39931;DHT22;26635;-35.248;149.138;2023-04-01T02:47:59;17.80;65.40
39931;DHT22;26635;-35.248;149.138;2023-04-01T02:50:30;17.80;64.00
39931;DHT22;26635;-35.248;149.138;2023-04-01T02:53:01;17.80;65.20
39931;DHT22;26635;-35.248;149.138;2023-04-01T02:55:34;17.90;63.30
39931;DHT22;26635;-35.248;149.138;2023-04-01T02:58:08;18.00;64.00
39931;DHT22;26635;-35.248;149.138;2023-04-01T03:00:42;18.00;64.10
39931;DHT22;26635;-35.248;149.138;2023-04-01T03:03:12;18.10;64.10
39931;DHT22;26635;-35.248;149.138;2023-04-01T03:05:43;18.10;63.80
39931;DHT22;26635;-35.248;149.138;2023-04-01T03:08:14;18.10;65.10
39931;DHT22;26635;-35.248;149.138;2023-04-01T03:11:07;18.00;63.80
39931;DHT22;26635;-35.248;149.138;2023-04-01T03:13:56;18.00;64.30
39931;DHT22;26635;-35.248;149.138;2023-04-01T03:16:27;18.00;63.60
39931;DHT22;26635;-35.248;149.138;2023-04-01T03:18:58;18.00;63.30
39931;DHT22;26635;-35.248;149.138;2023-04-01T03:21:31;18.00;63.20
39931;DHT22;26635;-35.248;149.138;2023-04-01T03:24:01;18.10;63.40
39931;DHT22;26635;-35.248;149.138;2023-04-01T03:26:32;18.10;63.00
39931;DHT22;26635;-35.248;149.138;2023-04-01T03:29:03;18.20;63.50
39931;DHT22;26635;-35.248;149.138;2023-04-01T03:31:34;18.30;63.50
39931;DHT22;26635;-35.248;149.138;2023-04-01T03:34:05;18.30;62.40
39931;DHT22;26635;-35.248;149.138;2023-04-01T03:36:36;18.30;63.30
39931;DHT22;26635;-35.248;149.138;2023-04-01T03:39:07;18.30;60.30
39931;DHT22;26635;-35.248;149.138;2023-04-01T03:41:38;18.30;61.00
39931;DHT22;26635;-35.248;149.138;2023-04-01T03:44:08;18.20;59.50
39931;DHT22;26635;-35.248;149.138;2023-04-01T03:46:43;18.20;62.30
39931;DHT22;26635;-35.248;149.138;2023-04-01T03:49:15;18.10;63.30
39931;DHT22;26635;-35.248;149.138;2023-04-01T03:51:45;18.20;63.30
39931;DHT22;26635;-35.248;149.138;2023-04-01T03:54:16;18.20;63.90
39931;DHT22;26635;-35.248;149.138;2023-04-01T03:56:49;18.20;63.50
39931;DHT22;26635;-35.248;149.138;2023-04-01T03:59:21;18.20;62.60
39931;DHT22;26635;-35.248;149.138;2023-04-01T04:01:52;18.20;62.60
39931;DHT22;26635;-35.248;149.138;2023-04-01T04:04:23;18.20;60.60
39931;DHT22;26635;-35.248;149.138;2023-04-01T04:06:56;18.10;62.70
39931;DHT22;26635;-35.248;149.138;2023-04-01T04:09:27;18.10;62.80
39931;DHT22;26635;-35.248;149.138;2023-04-01T04:11:59;18.00;62.80
39931;DHT22;26635;-35.248;149.138;2023-04-01T04:14:32;18.00;61.80
39931;DHT22;26635;-35.248;149.138;2023-04-01T04:17:03;18.00;63.90
39931;DHT22;26635;-35.248;149.138;2023-04-01T04:19:34;18.00;63.00
39931;DHT22;26635;-35.248;149.138;2023-04-01T04:22:05;17.90;60.80
39931;DHT22;26635;-35.248;149.138;2023-04-01T04:24:36;17.90;62.20
39931;DHT22;26635;-35.248;149.138;2023-04-01T04:27:07;17.90;60.70
39931;DHT22;26635;-35.248;149.138;2023-04-01T04:29:38;17.90;61.40
39931;DHT22;26635;-35.248;149.138;2023-04-01T04:32:09;17.90;62.10
39931;DHT22;26635;-35.248;149.138;2023-04-01T04:34:41;17.90;62.10
39931;DHT22;26635;-35.248;149.138;2023-04-01T04:37:12;18.00;63.40
39931;DHT22;26635;-35.248;149.138;2023-04-01T04:39:43;18.00;62.40
39931;DHT22;26635;-35.248;149.138;2023-04-01T04:42:33;17.90;62.00
39931;DHT22;26635;-35.248;149.138;2023-04-01T04:45:15;17.90;61.90
39931;DHT22;26635;-35.248;149.138;2023-04-01T04:47:46;18.00;63.90
39931;DHT22;26635;-35.248;149.138;2023-04-01T04:50:17;18.00;63.00
39931;DHT22;26635;-35.248;149.138;2023-04-01T04:52:48;17.90;60.00
39931;DHT22;26635;-35.248;149.138;2023-04-01T04:55:19;17.90;60.50
39931;DHT22;26635;-35.248;149.138;2023-04-01T04:57:51;17.90;61.10
39931;DHT22;26635;-35.248;149.138;2023-04-01T05:00:22;17.90;62.60
39931;DHT22;26635;-35.248;149.138;2023-04-01T05:02:53;17.90;62.90
39931;DHT22;26635;-35.248;149.138;2023-04-01T05:05:25;17.90;63.10
39931;DHT22;26635;-35.248;149.138;2023-04-01T05:07:56;17.90;62.20
39931;DHT22;26635;-35.248;149.138;2023-04-01T05:10:30;17.80;61.90
39931;DHT22;26635;-35.248;149.138;2023-04-01T05:13:01;17.90;63.40
39931;DHT22;26635;-35.248;149.138;2023-04-01T05:15:32;17.90;62.10
39931;DHT22;26635;-35.248;149.138;2023-04-01T05:18:03;18.00;60.70
39931;DHT22;26635;-35.248;149.138;2023-04-01T05:20:34;18.00;61.70
39931;DHT22;26635;-35.248;149.138;2023-04-01T05:23:06;18.00;61.20
39931;DHT22;26635;-35.248;149.138;2023-04-01T05:25:39;18.00;61.90
39931;DHT22;26635;-35.248;149.138;2023-04-01T05:28:12;18.00;63.20
39931;DHT22;26635;-35.248;149.138;2023-04-01T05:30:45;18.10;61.00
39931;DHT22;26635;-35.248;149.138;2023-04-01T05:33:19;18.10;61.80
39931;DHT22;26635;-35.248;149.138;2023-04-01T05:36:11;18.20;62.50
39931;DHT22;26635;-35.248;149.138;2023-04-01T05:38:43;18.20;61.80
39931;DHT22;26635;-35.248;149.138;2023-04-01T05:41:21;18.20;61.20
39931;DHT22;26635;-35.248;149.138;2023-04-01T05:43:52;18.10;61.30
39931;DHT22;26635;-35.248;149.138;2023-04-01T05:46:23;18.10;61.30
39931;DHT22;26635;-35.248;149.138;2023-04-01T05:48:55;18.10;61.60
39931;DHT22;26635;-35.248;149.138;2023-04-01T05:51:27;18.00;61.20
39931;DHT22;26635;-35.248;149.138;2023-04-01T05:53:58;18.00;60.60
39931;DHT22;26635;-35.248;149.138;2023-04-01T05:56:30;18.00;59.10
39931;DHT22;26635;-35.248;149.138;2023-04-01T05:59:01;18.00;60.30
39931;DHT22;26635;-35.248;149.138;2023-04-01T06:01:32;18.00;61.00
39931;DHT22;26635;-35.248;149.138;2023-04-01T06:04:05;18.00;58.70
39931;DHT22;26635;-35.248;149.138;2023-04-01T06:06:37;18.00;59.80
39931;DHT22;26635;-35.248;149.138;2023-04-01T06:12:29;18.00;59.40
39931;DHT22;26635;-35.248;149.138;2023-04-01T06:24:07;17.70;62.70
39931;DHT22;26635;-35.248;149.138;2023-04-01T06:46:48;16.90;65.30
39931;DHT22;26635;-35.248;149.138;2023-04-01T06:49:48;16.90;65.80
39931;DHT22;26635;-35.248;149.138;2023-04-01T06:55:41;16.80;63.40
39931;DHT22;26635;-35.248;149.138;2023-04-01T07:01:43;16.70;64.60
39931;DHT22;26635;-35.248;149.138;2023-04-01T07:07:00;16.70;63.70
39931;DHT22;26635;-35.248;149.138;2023-04-01T07:09:40;16.60;64.50
39931;DHT22;26635;-35.248;149.138;2023-04-01T07:12:34;16.60;64.90
39931;DHT22;26635;-35.248;149.138;2023-04-01T07:15:19;16.60;64.00
39931;DHT22;26635;-35.248;149.138;2023-04-01T07:18:05;16.50;63.60
39931;DHT22;26635;-35.248;149.138;2023-04-01T07:20:39;16.50;64.30
39931;DHT22;26635;-35.248;149.138;2023-04-01T07:23:23;16.40;63.50
39931;DHT22;26635;-35.248;149.138;2023-04-01T07:25:59;16.40;64.80
39931;DHT22;26635;-35.248;149.138;2023-04-01T07:28:31;16.40;65.30
39931;DHT22;26635;-35.248;149.138;2023-04-01T07:34:12;16.30;65.40
39931;DHT22;26635;-35.248;149.138;2023-04-01T07:36:59;16.30;65.50
39931;DHT22;26635;-35.248;149.138;2023-04-01T07:49:07;16.10;66.40
39931;DHT22;26635;-35.248;149.138;2023-04-01T07:54:23;16.00;67.00
39931;DHT22;26635;-35.248;149.138;2023-04-01T07:57:08;16.00;66.80
39931;DHT22;26635;-35.248;149.138;2023-04-01T08:05:40;15.80;67.00
39931;DHT22;26635;-35.248;149.138;2023-04-01T08:08:25;15.80;68.70
39931;DHT22;26635;-35.248;149.138;2023-04-01T08:14:13;15.70;69.80
39931;DHT22;26635;-35.248;149.138;2023-04-01T08:20:18;15.60;70.60
39931;DHT22;26635;-35.248;149.138;2023-04-01T08:22:57;15.60;71.50
39931;DHT22;26635;-35.248;149.138;2023-04-01T08:25:31;15.60;72.30
39931;DHT22;26635;-35.248;149.138;2023-04-01T08:28:20;15.50;71.00
39931;DHT22;26635;-35.248;149.138;2023-04-01T08:33:47;15.40;74.90
39931;DHT22;26635;-35.248;149.138;2023-04-01T08:36:32;15.40;74.80
39931;DHT22;26635;-35.248;149.138;2023-04-01T08:39:15;15.40;75.60
39931;DHT22;26635;-35.248;149.138;2023-04-01T08:42:08;15.30;74.40
39931;DHT22;26635;-35.248;149.138;2023-04-01T08:50:50;15.10;74.70
39931;DHT22;26635;-35.248;149.138;2023-04-01T09:02:46;15.00;74.70
39931;DHT22;26635;-35.248;149.138;2023-04-01T09:08:41;14.80;75.20
39931;DHT22;26635;-35.248;149.138;2023-04-01T09:11:35;14.70;75.50
39931;DHT22;26635;-35.248;149.138;2023-04-01T09:31:23;14.20;78.70
39931;DHT22;26635;-35.248;149.138;2023-04-01T09:37:18;14.20;79.70
39931;DHT22;26635;-35.248;149.138;2023-04-01T09:48:42;14.00;78.80
39931;DHT22;26635;-35.248;149.138;2023-04-01T09:51:36;13.90;79.80
39931;DHT22;26635;-35.248;149.138;2023-04-01T09:54:32;13.80;80.00
39931;DHT22;26635;-35.248;149.138;2023-04-01T10:15:34;13.60;80.90
39931;DHT22;26635;-35.248;149.138;2023-04-01T10:32:30;13.30;83.00
39931;DHT22;26635;-35.248;149.138;2023-04-01T10:38:56;13.10;84.00
39931;DHT22;26635;-35.248;149.138;2023-04-01T10:44:32;13.00;84.60
39931;DHT22;26635;-35.248;149.138;2023-04-01T10:47:39;12.90;84.80
39931;DHT22;26635;-35.248;149.138;2023-04-01T11:04:56;12.40;86.40
39931;DHT22;26635;-35.248;149.138;2023-04-01T11:31:46;12.00;87.50
39931;DHT22;26635;-35.248;149.138;2023-04-01T11:37:15;12.00;88.20
39931;DHT22;26635;-35.248;149.138;2023-04-01T11:58:18;11.80;89.30
39931;DHT22;26635;-35.248;149.138;2023-04-01T12:01:04;11.80;90.40
39931;DHT22;26635;-35.248;149.138;2023-04-01T12:06:44;11.80;89.30
39931;DHT22;26635;-35.248;149.138;2023-04-01T12:18:22;11.70;89.50
39931;DHT22;26635;-35.248;149.138;2023-04-01T12:20:58;11.70;89.00
39931;DHT22;26635;-35.248;149.138;2023-04-01T12:29:42;11.60;88.90
39931;DHT22;26635;-35.248;149.138;2023-04-01T12:41:14;11.40;90.10
39931;DHT22;26635;-35.248;149.138;2023-04-01T12:55:48;11.30;90.50
39931;DHT22;26635;-35.248;149.138;2023-04-01T13:00:59;11.30;90.50
39931;DHT22;26635;-35.248;149.138;2023-04-01T13:10:02;11.40;90.00
39931;DHT22;26635;-35.248;149.138;2023-04-01T13:12:55;11.30;90.10
39931;DHT22;26635;-35.248;149.138;2023-04-01T13:24:28;11.40;91.00
39931;DHT22;26635;-35.248;149.138;2023-04-01T13:27:14;11.40;90.30
39931;DHT22;26635;-35.248;149.138;2023-04-01T13:35:53;11.50;90.00
39931;DHT22;26635;-35.248;149.138;2023-04-01T13:38:44;11.50;90.00
39931;DHT22;26635;-35.248;149.138;2023-04-01T13:41:50;11.50;90.00
39931;DHT22;26635;-35.248;149.138;2023-04-01T13:47:15;11.60;89.50
39931;DHT22;26635;-35.248;149.138;2023-04-01T13:53:01;11.50;89.20
39931;DHT22;26635;-35.248;149.138;2023-04-01T13:58:33;11.40;89.20
39931;DHT22;26635;-35.248;149.138;2023-04-01T14:15:22;11.10;90.50
39931;DHT22;26635;-35.248;149.138;2023-04-01T14:18:15;11.10;90.60
39931;DHT22;26635;-35.248;149.138;2023-04-01T14:21:20;11.00;90.40
39931;DHT22;26635;-35.248;149.138;2023-04-01T14:23:55;11.00;90.80
39931;DHT22;26635;-35.248;149.138;2023-04-01T14:35:29;11.00;90.80
39931;DHT22;26635;-35.248;149.138;2023-04-01T14:47:19;10.90;90.80
39931;DHT22;26635;-35.248;149.138;2023-04-01T14:50:17;10.90;90.50
39931;DHT22;26635;-35.248;149.138;2023-04-01T14:52:57;10.90;90.70
39931;DHT22;26635;-35.248;149.138;2023-04-01T14:55:32;10.80;90.50
39931;DHT22;26635;-35.248;149.138;2023-04-01T15:06:19;10.70;90.40
39931;DHT22;26635;-35.248;149.138;2023-04-01T15:09:24;10.60;90.80
39931;DHT22;26635;-35.248;149.138;2023-04-01T15:18:08;10.50;91.10
39931;DHT22;26635;-35.248;149.138;2023-04-01T15:24:37;10.50;91.10
39931;DHT22;26635;-35.248;149.138;2023-04-01T15:36:04;10.40;90.50
39931;DHT22;26635;-35.248;149.138;2023-04-01T15:44:56;10.30;90.80
39931;DHT22;26635;-35.248;149.138;2023-04-01T15:53:10;10.30;90.50
39931;DHT22;26635;-35.248;149.138;2023-04-01T16:01:24;10.30;90.10
39931;DHT22;26635;-35.248;149.138;2023-04-01T16:04:17;10.30;90.40
39931;DHT22;26635;-35.248;149.138;2023-04-01T16:07:00;10.30;90.60
39931;DHT22;26635;-35.248;149.138;2023-04-01T16:23:00;10.20;90.40
39931;DHT22;26635;-35.248;149.138;2023-04-01T16:25:51;10.20;91.20
39931;DHT22;26635;-35.248;149.138;2023-04-01T16:28:38;10.20;91.20
39931;DHT22;26635;-35.248;149.138;2023-04-01T16:37:20;10.10;91.20
39931;DHT22;26635;-35.248;149.138;2023-04-01T16:39:52;10.10;91.10
39931;DHT22;26635;-35.248;149.138;2023-04-01T16:45:17;10.00;90.90
39931;DHT22;26635;-35.248;149.138;2023-04-01T16:53:47;9.80;91.30
39931;DHT22;26635;-35.248;149.138;2023-04-01T16:56:23;9.90;91.60
39931;DHT22;26635;-35.248;149.138;2023-04-01T16:59:06;9.90;92.20
39931;DHT22;26635;-35.248;149.138;2023-04-01T17:01:53;9.90;92.00
39931;DHT22;26635;-35.248;149.138;2023-04-01T17:04:31;9.80;91.60
39931;DHT22;26635;-35.248;149.138;2023-04-01T17:13:06;9.80;91.70
39931;DHT22;26635;-35.248;149.138;2023-04-01T17:27:15;9.50;91.90
39931;DHT22;26635;-35.248;149.138;2023-04-01T17:30:12;9.50;91.60
39931;DHT22;26635;-35.248;149.138;2023-04-01T17:35:59;9.40;91.90
39931;DHT22;26635;-35.248;149.138;2023-04-01T17:38:59;9.30;91.60
39931;DHT22;26635;-35.248;149.138;2023-04-01T17:45:01;9.30;92.60
39931;DHT22;26635;-35.248;149.138;2023-04-01T17:53:02;9.20;92.00
39931;DHT22;26635;-35.248;149.138;2023-04-01T18:05:05;9.10;91.80
39931;DHT22;26635;-35.248;149.138;2023-04-01T18:22:04;8.80;91.50
39931;DHT22;26635;-35.248;149.138;2023-04-01T18:24:42;8.70;91.40
39931;DHT22;26635;-35.248;149.138;2023-04-01T18:27:24;8.70;91.90
39931;DHT22;26635;-35.248;149.138;2023-04-01T18:30:15;8.70;92.10
39931;DHT22;26635;-35.248;149.138;2023-04-01T18:35:58;8.60;92.00
39931;DHT22;26635;-35.248;149.138;2023-04-01T18:38:52;8.60;91.90
39931;DHT22;26635;-35.248;149.138;2023-04-01T18:47:34;8.60;92.80
39931;DHT22;26635;-35.248;149.138;2023-04-01T18:56:11;8.60;92.00
39931;DHT22;26635;-35.248;149.138;2023-04-01T19:06:57;8.50;91.60
39931;DHT22;26635;-35.248;149.138;2023-04-01T19:09:31;8.40;92.50
39931;DHT22;26635;-35.248;149.138;2023-04-01T19:12:30;8.40;91.70
39931;DHT22;26635;-35.248;149.138;2023-04-01T19:21:39;8.30;91.90
39931;DHT22;26635;-35.248;149.138;2023-04-01T19:24:25;8.30;91.50
39931;DHT22;26635;-35.248;149.138;2023-04-01T19:27:10;8.30;92.50
39931;DHT22;26635;-35.248;149.138;2023-04-01T19:32:53;8.20;92.10
39931;DHT22;26635;-35.248;149.138;2023-04-01T19:38:39;8.10;91.80
39931;DHT22;26635;-35.248;149.138;2023-04-01T19:41:32;8.10;91.90
39931;DHT22;26635;-35.248;149.138;2023-04-01T19:52:42;8.00;92.30
39931;DHT22;26635;-35.248;149.138;2023-04-01T19:59:12;7.90;92.10
39931;DHT22;26635;-35.248;149.138;2023-04-01T20:01:34;7.90;92.60
39931;DHT22;26635;-35.248;149.138;2023-04-01T20:04:30;7.90;92.40
39931;DHT22;26635;-35.248;149.138;2023-04-01T20:19:39;7.90;92.10
39931;DHT22;26635;-35.248;149.138;2023-04-01T20:25:30;7.90;92.30
39931;DHT22;26635;-35.248;149.138;2023-04-01T20:53:58;8.30;93.70
39931;DHT22;26635;-35.248;149.138;2023-04-01T21:11:18;8.80;94.00
39931;DHT22;26635;-35.248;149.138;2023-04-01T21:37:12;10.00;93.60
39931;DHT22;26635;-35.248;149.138;2023-04-01T22:00:09;10.90;90.50
39931;DHT22;26635;-35.248;149.138;2023-04-01T22:06:03;11.00;88.80
39931;DHT22;26635;-35.248;149.138;2023-04-01T22:14:55;11.20;89.40
39931;DHT22;26635;-35.248;149.138;2023-04-01T22:20:40;11.40;89.30
39931;DHT22;26635;-35.248;149.138;2023-04-01T22:31:21;11.80;88.40
39931;DHT22;26635;-35.248;149.138;2023-04-01T22:36:58;12.10;88.30
39931;DHT22;26635;-35.248;149.138;2023-04-01T22:39:56;12.20;88.20
39931;DHT22;26635;-35.248;149.138;2023-04-01T22:42:52;12.30;87.90
39931;DHT22;26635;-35.248;149.138;2023-04-01T22:48:20;12.50;87.20
39931;DHT22;26635;-35.248;149.138;2023-04-01T22:51:15;12.70;86.40
39931;DHT22;26635;-35.248;149.138;2023-04-01T22:54:02;12.80;85.60
39931;DHT22;26635;-35.248;149.138;2023-04-01T22:56:52;12.80;85.00
39931;DHT22;26635;-35.248;149.138;2023-04-01T23:02:18;13.00;85.10
39931;DHT22;26635;-35.248;149.138;2023-04-01T23:04:57;13.00;84.20
39931;DHT22;26635;-35.248;149.138;2023-04-01T23:10:18;13.20;83.30
39931;DHT22;26635;-35.248;149.138;2023-04-01T23:12:52;13.30;83.20
39931;DHT22;26635;-35.248;149.138;2023-04-01T23:15:27;13.30;83.40
39931;DHT22;26635;-35.248;149.138;2023-04-01T23:18:29;13.40;83.10
39931;DHT22;26635;-35.248;149.138;2023-04-01T23:24:15;13.60;82.10
39931;DHT22;26635;-35.248;149.138;2023-04-01T23:26:59;13.80;82.70
39931;DHT22;26635;-35.248;149.138;2023-04-01T23:29:31;13.90;81.20
39931;DHT22;26635;-35.248;149.138;2023-04-01T23:32:05;14.00;80.70
39931;DHT22;26635;-35.248;149.138;2023-04-01T23:34:49;14.10;81.00
39931;DHT22;26635;-35.248;149.138;2023-04-01T23:37:20;14.30;81.60
39931;DHT22;26635;-35.248;149.138;2023-04-01T23:40:02;14.40;81.00
39931;DHT22;26635;-35.248;149.138;2023-04-01T23:42:40;14.50;80.10
39931;DHT22;26635;-35.248;149.138;2023-04-01T23:45:16;14.60;79.30
39931;DHT22;26635;-35.248;149.138;2023-04-01T23:47:56;14.70;78.50
39931;DHT22;26635;-35.248;149.138;2023-04-01T23:50:46;14.80;79.00
39931;DHT22;26635;-35.248;149.138;2023-04-01T23:54:01;15.00;79.10
39931;DHT22;26635;-35.248;149.138;2023-04-01T23:56:39;15.20;79.00
39931;DHT22;26635;-35.248;149.138;2023-04-01T23:59:31;15.30;78.20
